createdAt,value
2022-09-07T00:00:37.735Z,4.57
2022-09-07T00:01:40.709Z,3.97
2022-09-07T00:02:42.720Z,4.15
2022-09-07T00:03:45.818Z,4.20
2022-09-07T00:04:47.759Z,4.10
2022-09-07T00:05:52.785Z,3.70
2022-09-07T00:06:54.783Z,4.10
2022-09-07T00:07:58.168Z,3.92
2022-09-07T00:09:00.436Z,4.18
2022-09-07T00:10:03.396Z,4.38
2022-09-07T00:11:08.132Z,4.30
2022-09-07T00:12:11.209Z,4.40
2022-09-07T00:13:13.135Z,4.40
2022-09-07T00:14:17.450Z,3.80
2022-09-07T00:15:19.841Z,3.75
2022-09-07T00:16:25.626Z,3.95
2022-09-07T00:17:27.637Z,4.80
2022-09-07T00:18:31.444Z,4.78
2022-09-07T00:19:33.586Z,4.50
2022-09-07T00:20:37.413Z,4.47
2022-09-07T00:21:39.375Z,4.20
2022-09-07T00:22:42.434Z,4.30
2022-09-07T00:23:45.559Z,4.35
2022-09-07T00:24:48.457Z,4.68
2022-09-07T00:25:53.975Z,3.65
2022-09-07T00:26:57.404Z,3.90
2022-09-07T00:27:59.631Z,3.47
2022-09-07T00:29:06.260Z,4.50
2022-09-07T00:30:10.878Z,4.35
2022-09-07T00:31:17.107Z,5.00
2022-09-07T00:32:20.212Z,4.07
2022-09-07T00:33:22.462Z,3.90
2022-09-07T00:34:25.426Z,4.55
2022-09-07T00:35:27.428Z,3.88
2022-09-07T00:36:30.848Z,4.50
2022-09-07T00:37:32.899Z,4.30
2022-09-07T00:38:36.337Z,3.90
2022-09-07T00:39:38.876Z,4.00
2022-09-07T00:40:42.090Z,4.05
2022-09-07T00:41:45.054Z,4.40
2022-09-07T00:42:47.033Z,4.68
2022-09-07T00:43:52.484Z,3.97
2022-09-07T00:45:07.208Z,4.25
2022-09-07T00:46:15.643Z,3.97
2022-09-07T00:47:21.374Z,4.05
2022-09-07T00:48:28.910Z,3.97
2022-09-07T00:49:31.371Z,4.20
2022-09-07T00:50:39.217Z,4.57
2022-09-07T00:51:46.213Z,4.18
2022-09-07T00:52:52.998Z,4.07
2022-09-07T00:53:58.562Z,4.25
2022-09-07T00:55:07.576Z,4.70
2022-09-07T00:56:10.082Z,4.28
2022-09-07T00:57:13.633Z,4.50
2022-09-07T00:58:16.768Z,4.05
2022-09-07T00:59:24.560Z,3.92
2022-09-07T01:00:28.175Z,3.97
2022-09-07T01:01:34.017Z,3.85
2022-09-07T01:02:36.266Z,3.58
2022-09-07T01:03:43.451Z,4.13
2022-09-07T01:04:48.514Z,4.07
2022-09-07T01:05:57.360Z,5.07
2022-09-07T01:06:59.790Z,3.67
2022-09-07T01:08:02.989Z,3.90
2022-09-07T01:09:08.123Z,3.53
2022-09-07T01:10:11.114Z,3.97
2022-09-07T01:11:13.180Z,3.70
2022-09-07T01:12:16.217Z,3.40
2022-09-07T01:13:18.194Z,3.97
2022-09-07T01:14:23.900Z,3.83
2022-09-07T01:15:36.258Z,3.50
2022-09-07T01:16:55.158Z,3.65
2022-09-07T01:18:03.536Z,3.80
2022-09-07T01:19:25.461Z,3.30
2022-09-07T01:20:45.972Z,4.50
2022-09-07T01:22:05.916Z,3.50
2022-09-07T01:23:35.069Z,3.65
2022-09-07T01:25:00.918Z,3.80
2022-09-07T01:26:41.573Z,3.80
2022-09-07T01:28:05.379Z,3.92
2022-09-07T01:29:14.855Z,3.55
2022-09-07T01:30:19.949Z,3.58
2022-09-07T01:31:31.717Z,3.70
2022-09-07T01:32:48.553Z,3.58
2022-09-07T01:34:01.175Z,3.10
2022-09-07T01:35:11.344Z,3.47
2022-09-07T01:36:24.115Z,3.30
2022-09-07T01:37:32.310Z,3.83
2022-09-07T01:38:43.038Z,3.05
2022-09-07T01:39:51.695Z,2.42
2022-09-07T01:41:00.889Z,3.50
2022-09-07T01:42:08.710Z,3.05
2022-09-07T01:43:18.231Z,3.80
2022-09-07T01:44:24.590Z,3.05
2022-09-07T01:45:33.144Z,3.95
2022-09-07T01:46:40.178Z,5.72
2022-09-07T01:47:47.038Z,3.17
2022-09-07T01:48:52.848Z,3.50
2022-09-07T01:50:02.701Z,2.90
2022-09-07T01:51:05.732Z,3.92
2022-09-07T01:52:14.469Z,3.80
2022-09-07T01:53:20.101Z,4.00
2022-09-07T01:54:28.716Z,3.55
2022-09-07T01:55:35.574Z,3.95
2022-09-07T01:56:43.318Z,3.15
2022-09-07T01:57:52.151Z,3.10
2022-09-07T01:58:58.796Z,3.22
2022-09-07T02:00:05.504Z,3.30
2022-09-07T02:01:25.412Z,4.25
2022-09-07T02:02:30.900Z,3.50
2022-09-07T02:03:38.469Z,3.45
2022-09-07T02:04:45.350Z,3.30
2022-09-07T02:05:53.843Z,3.92
2022-09-07T02:07:00.309Z,3.67
2022-09-07T02:08:11.910Z,3.42
2022-09-07T02:09:19.319Z,3.47
2022-09-07T02:10:25.208Z,3.70
2022-09-07T02:11:34.073Z,3.88
2022-09-07T02:12:40.693Z,4.13
2022-09-07T02:13:47.873Z,3.40
2022-09-07T02:14:57.826Z,3.85
2022-09-07T02:16:03.012Z,3.35
2022-09-07T02:17:10.831Z,3.40
2022-09-07T02:18:14.249Z,3.58
2022-09-07T02:19:20.121Z,3.63
2022-09-07T02:20:26.866Z,3.40
2022-09-07T02:21:35.701Z,3.35
2022-09-07T02:22:42.166Z,3.92
2022-09-07T02:23:50.171Z,3.25
2022-09-07T02:24:56.583Z,3.50
2022-09-07T02:26:02.470Z,3.50
2022-09-07T02:27:09.213Z,3.25
2022-09-07T02:28:16.101Z,3.70
2022-09-07T02:29:18.211Z,3.60
2022-09-07T02:30:22.609Z,3.78
2022-09-07T02:31:25.191Z,3.78
2022-09-07T02:32:28.378Z,3.42
2022-09-07T02:33:31.076Z,3.20
2022-09-07T02:34:34.546Z,3.58
2022-09-07T02:35:36.677Z,3.20
2022-09-07T02:36:44.710Z,3.58
2022-09-07T02:37:49.032Z,3.55
2022-09-07T02:38:51.970Z,2.85
2022-09-07T02:39:54.432Z,2.92
2022-09-07T02:40:59.990Z,3.47
2022-09-07T02:42:02.114Z,3.00
2022-09-07T02:43:07.511Z,3.30
2022-09-07T02:44:14.054Z,3.58
2022-09-07T02:45:18.298Z,3.20
2022-09-07T02:46:36.010Z,3.90
2022-09-07T02:47:53.879Z,3.78
2022-09-07T02:49:06.355Z,3.55
2022-09-07T02:50:29.992Z,3.13
2022-09-07T02:51:41.328Z,3.05
2022-09-07T02:52:53.244Z,3.88
2022-09-07T02:54:10.540Z,3.45
2022-09-07T02:55:27.062Z,3.50
2022-09-07T02:56:44.194Z,3.05
2022-09-07T02:57:58.305Z,3.13
2022-09-07T02:59:11.570Z,3.15
2022-09-07T03:00:20.736Z,2.92
2022-09-07T03:01:36.240Z,2.90
2022-09-07T03:02:53.176Z,3.63
2022-09-07T03:04:06.815Z,3.55
2022-09-07T03:05:16.110Z,3.22
2022-09-07T03:06:24.966Z,3.30
2022-09-07T03:07:35.941Z,3.35
2022-09-07T03:08:44.290Z,3.20
2022-09-07T03:09:51.102Z,3.35
2022-09-07T03:10:53.753Z,3.15
2022-09-07T03:11:57.290Z,3.20
2022-09-07T03:12:59.304Z,3.22
2022-09-07T03:14:16.579Z,3.58
2022-09-07T03:15:21.805Z,3.40
2022-09-07T03:16:26.141Z,3.35
2022-09-07T03:17:28.333Z,3.20
2022-09-07T03:18:31.482Z,3.35
2022-09-07T03:19:33.527Z,3.47
2022-09-07T03:20:36.511Z,3.13
2022-09-07T03:21:38.590Z,3.30
2022-09-07T03:22:41.610Z,3.80
2022-09-07T03:23:43.605Z,3.60
2022-09-07T03:24:46.559Z,3.78
2022-09-07T03:25:49.014Z,2.95
2022-09-07T03:26:53.008Z,4.00
2022-09-07T03:27:54.944Z,3.85
2022-09-07T03:28:58.029Z,3.47
2022-09-07T03:30:00.579Z,3.15
2022-09-07T03:31:04.672Z,2.95
2022-09-07T03:32:08.142Z,3.30
2022-09-07T03:33:11.227Z,3.08
2022-09-07T03:34:13.264Z,3.50
2022-09-07T03:35:16.386Z,3.30
2022-09-07T03:36:19.467Z,3.00
2022-09-07T03:37:21.424Z,3.33
2022-09-07T03:38:24.396Z,2.92
2022-09-07T03:39:26.963Z,3.33
2022-09-07T03:40:30.066Z,2.95
2022-09-07T03:41:32.127Z,3.10
2022-09-07T03:42:35.172Z,3.40
2022-09-07T03:43:37.117Z,3.40
2022-09-07T03:44:40.035Z,3.38
2022-09-07T03:45:41.984Z,5.03
2022-09-07T03:46:45.180Z,3.47
2022-09-07T03:47:51.126Z,2.90
2022-09-07T03:48:54.108Z,2.83
2022-09-07T03:49:56.098Z,3.50
2022-09-07T03:51:00.504Z,3.50
2022-09-07T03:52:04.279Z,2.80
2022-09-07T03:53:07.204Z,2.92
2022-09-07T03:54:09.244Z,3.15
2022-09-07T03:55:12.692Z,3.00
2022-09-07T03:56:18.162Z,2.60
2022-09-07T03:57:21.222Z,2.80
2022-09-07T03:58:23.128Z,3.83
2022-09-07T03:59:26.289Z,2.80
2022-09-07T04:00:28.381Z,2.97
2022-09-07T04:01:31.878Z,2.70
2022-09-07T04:02:33.971Z,3.58
2022-09-07T04:03:39.471Z,2.90
2022-09-07T04:04:42.395Z,3.40
2022-09-07T04:05:45.423Z,2.70
2022-09-07T04:06:47.424Z,3.50
2022-09-07T04:07:50.379Z,3.00
2022-09-07T04:08:52.324Z,3.55
2022-09-07T04:09:55.370Z,3.72
2022-09-07T04:10:57.837Z,3.15
2022-09-07T04:12:00.804Z,3.30
2022-09-07T04:13:02.919Z,3.85
2022-09-07T04:14:06.041Z,2.78
2022-09-07T04:15:09.077Z,3.33
2022-09-07T04:16:14.053Z,2.80
2022-09-07T04:17:16.058Z,3.08
2022-09-07T04:18:19.314Z,3.28
2022-09-07T04:19:23.024Z,3.22
2022-09-07T04:20:26.054Z,3.38
2022-09-07T04:21:29.653Z,3.30
2022-09-07T04:22:32.612Z,3.42
2022-09-07T04:23:34.642Z,2.85
2022-09-07T04:24:37.610Z,3.40
2022-09-07T04:25:47.112Z,3.75
2022-09-07T04:26:50.187Z,3.45
2022-09-07T04:27:52.103Z,3.20
2022-09-07T04:28:55.459Z,3.30
2022-09-07T04:29:57.505Z,3.22
2022-09-07T04:31:02.014Z,3.60
2022-09-07T04:32:05.150Z,3.08
2022-09-07T04:33:07.383Z,3.10
2022-09-07T04:34:12.013Z,3.55
2022-09-07T04:35:15.831Z,2.83
2022-09-07T04:36:20.920Z,3.03
2022-09-07T04:37:22.925Z,3.30
2022-09-07T04:38:26.093Z,3.50
2022-09-07T04:39:29.288Z,3.65
2022-09-07T04:40:32.616Z,2.83
2022-09-07T04:41:35.699Z,3.10
2022-09-07T04:42:37.664Z,3.13
2022-09-07T04:43:41.334Z,3.42
2022-09-07T04:44:44.441Z,3.50
2022-09-07T04:45:46.399Z,3.20
2022-09-07T04:46:49.330Z,3.65
2022-09-07T04:47:51.734Z,3.65
2022-09-07T04:48:57.006Z,3.28
2022-09-07T04:49:59.217Z,3.25
2022-09-07T04:51:06.906Z,2.80
2022-09-07T04:52:08.861Z,2.92
2022-09-07T04:53:11.821Z,2.83
2022-09-07T04:54:13.998Z,3.60
2022-09-07T04:55:17.646Z,3.58
2022-09-07T04:56:21.173Z,3.55
2022-09-07T04:57:26.288Z,2.30
2022-09-07T04:58:28.743Z,2.85
2022-09-07T04:59:31.758Z,3.50
2022-09-07T05:00:33.680Z,3.00
2022-09-07T05:01:36.674Z,3.40
2022-09-07T05:02:38.771Z,3.38
2022-09-07T05:03:42.026Z,2.85
2022-09-07T05:04:44.068Z,3.33
2022-09-07T05:05:47.142Z,6.53
2022-09-07T05:06:50.500Z,3.45
2022-09-07T05:07:53.467Z,3.63
2022-09-07T05:08:56.043Z,2.78
2022-09-07T05:09:59.131Z,4.18
2022-09-07T05:11:01.038Z,4.10
2022-09-07T05:12:04.443Z,3.70
2022-09-07T05:13:06.349Z,3.15
2022-09-07T05:14:09.250Z,3.65
2022-09-07T05:15:11.588Z,4.22
2022-09-07T05:16:16.886Z,3.33
2022-09-07T05:17:19.385Z,3.45
2022-09-07T05:18:22.644Z,4.18
2022-09-07T05:19:24.656Z,4.30
2022-09-07T05:20:27.893Z,5.07
2022-09-07T05:21:32.558Z,3.50
2022-09-07T05:22:40.982Z,3.63
2022-09-07T05:23:43.194Z,3.90
2022-09-07T05:24:48.461Z,3.40
2022-09-07T05:25:50.483Z,4.45
2022-09-07T05:26:54.092Z,4.10
2022-09-07T05:27:56.296Z,3.60
2022-09-07T05:31:48.136Z,3.67
2022-09-07T05:32:50.179Z,3.90
2022-09-07T05:35:16.359Z,3.50
2022-09-07T05:36:20.563Z,3.83
2022-09-07T05:37:22.509Z,3.10
2022-09-07T05:38:27.459Z,3.58
2022-09-07T05:39:30.940Z,3.95
2022-09-07T05:40:39.907Z,3.78
2022-09-07T05:41:42.592Z,3.28
2022-09-07T05:42:45.582Z,3.35
2022-09-07T05:45:12.472Z,5.10
2022-09-07T05:46:15.018Z,3.42
2022-09-07T05:47:17.964Z,3.40
2022-09-07T05:48:19.984Z,3.70
2022-09-07T05:49:22.974Z,3.75
2022-09-07T05:50:24.927Z,3.72
2022-09-07T05:51:28.147Z,3.53
2022-09-07T05:52:30.100Z,3.42
2022-09-07T05:53:35.891Z,3.50
2022-09-07T05:54:37.910Z,3.50
2022-09-07T05:55:41.155Z,3.63
2022-09-07T05:56:43.187Z,3.35
2022-09-07T05:57:46.266Z,3.25
2022-09-07T05:58:49.225Z,3.30
2022-09-07T05:59:52.289Z,2.97
2022-09-07T06:00:57.872Z,3.08
2022-09-07T06:02:01.360Z,3.05
2022-09-07T06:03:03.627Z,3.80
2022-09-07T06:04:06.707Z,3.00
2022-09-07T06:05:11.119Z,3.42
2022-09-07T06:06:15.560Z,2.83
2022-09-07T06:07:21.979Z,2.90
2022-09-07T06:08:25.726Z,3.13
2022-09-07T06:09:30.635Z,2.58
2022-09-07T06:10:44.916Z,3.40
2022-09-07T06:11:47.292Z,3.55
2022-09-07T06:12:50.225Z,3.10
2022-09-07T06:13:52.185Z,3.22
2022-09-07T06:14:57.131Z,3.90
2022-09-07T06:16:00.755Z,3.05
2022-09-07T06:17:03.648Z,3.67
2022-09-07T06:18:05.807Z,2.70
2022-09-07T06:19:10.508Z,3.40
2022-09-07T06:20:12.419Z,2.90
2022-09-07T06:21:16.951Z,3.70
2022-09-07T06:22:18.968Z,2.63
2022-09-07T06:23:21.889Z,2.33
2022-09-07T06:24:24.031Z,2.92
2022-09-07T06:25:28.401Z,3.60
2022-09-07T06:26:31.027Z,2.67
2022-09-07T06:27:33.979Z,3.95
2022-09-07T06:28:37.795Z,2.85
2022-09-07T06:29:40.821Z,3.63
2022-09-07T06:30:42.907Z,3.45
2022-09-07T06:33:08.692Z,2.63
2022-09-07T06:34:10.699Z,2.85
2022-09-07T06:35:14.558Z,3.15
2022-09-07T06:36:17.909Z,3.13
2022-09-07T06:37:20.907Z,3.45
2022-09-07T06:38:23.057Z,3.25
2022-09-07T06:39:26.040Z,3.13
2022-09-07T06:40:29.478Z,3.30
2022-09-07T06:42:57.204Z,2.90
2022-09-07T06:43:59.162Z,2.60
2022-09-07T06:45:02.312Z,3.10
2022-09-07T06:47:28.511Z,3.25
2022-09-07T06:48:31.789Z,3.35
2022-09-07T06:49:33.881Z,2.22
2022-09-07T06:50:37.145Z,3.42
2022-09-07T06:51:39.074Z,3.55
2022-09-07T06:55:30.187Z,3.30
2022-09-07T06:56:33.904Z,3.72
2022-09-07T06:57:35.802Z,2.40
2022-09-07T06:58:42.440Z,3.17
2022-09-07T06:59:44.519Z,2.70
2022-09-07T07:00:47.491Z,3.00
2022-09-07T07:01:50.475Z,3.10
2022-09-07T07:02:52.466Z,2.90
2022-09-07T07:03:55.445Z,3.55
2022-09-07T07:04:57.497Z,2.97
2022-09-07T07:06:00.597Z,2.72
2022-09-07T07:07:02.522Z,3.15
2022-09-07T07:08:05.475Z,3.88
2022-09-07T07:09:09.900Z,3.10
2022-09-07T07:10:12.042Z,3.55
2022-09-07T07:11:17.233Z,3.20
2022-09-07T07:14:22.443Z,3.50
2022-09-07T07:15:27.236Z,2.88
2022-09-07T07:16:30.435Z,2.63
2022-09-07T07:17:32.488Z,2.72
2022-09-07T07:18:36.233Z,2.70
2022-09-07T07:19:38.421Z,2.70
2022-09-07T07:20:43.084Z,2.60
2022-09-07T07:22:10.821Z,3.08
2022-09-07T07:23:09.458Z,3.60
2022-09-07T07:24:11.585Z,3.45
2022-09-07T07:25:15.030Z,3.08
2022-09-07T07:26:21.438Z,2.33
2022-09-07T07:27:23.517Z,3.00
2022-09-07T07:29:52.369Z,2.83
2022-09-07T07:30:56.223Z,2.72
2022-09-07T07:31:59.303Z,2.30
2022-09-07T07:33:01.459Z,2.30
2022-09-07T07:34:04.702Z,2.08
2022-09-07T07:35:08.714Z,2.92
2022-09-07T07:36:13.711Z,2.10
2022-09-07T07:37:16.108Z,2.47
2022-09-07T07:42:30.003Z,2.55
2022-09-07T07:43:32.704Z,2.78
2022-09-07T07:44:35.647Z,2.50
2022-09-07T07:47:00.647Z,2.55
2022-09-07T07:48:03.149Z,2.40
2022-09-07T07:49:06.183Z,2.35
2022-09-07T07:51:32.065Z,2.65
2022-09-07T07:54:18.420Z,2.50
2022-09-07T07:56:43.520Z,3.08
2022-09-07T07:57:48.015Z,2.50
2022-09-07T07:58:52.419Z,2.80
2022-09-07T07:59:54.611Z,2.33
2022-09-07T08:01:02.814Z,2.60
2022-09-07T08:02:08.641Z,2.70
2022-09-07T08:03:11.879Z,2.70
2022-09-07T08:04:14.968Z,2.22
2022-09-07T08:05:18.992Z,2.20
2022-09-07T08:06:21.594Z,2.22
2022-09-07T08:07:24.610Z,2.10
2022-09-07T08:08:26.624Z,2.90
2022-09-07T08:09:29.784Z,2.28
2022-09-07T08:10:33.457Z,2.42
2022-09-07T08:11:36.486Z,2.25
2022-09-07T08:12:39.254Z,2.67
2022-09-07T08:13:45.514Z,2.38
2022-09-07T08:14:48.378Z,2.80
2022-09-07T08:15:51.601Z,2.30
2022-09-07T08:16:54.618Z,2.50
2022-09-07T08:17:56.865Z,2.00
2022-09-07T08:19:00.084Z,2.50
2022-09-07T08:20:03.241Z,2.47
2022-09-07T08:21:07.021Z,2.47
2022-09-07T08:22:11.231Z,2.25
2022-09-07T08:23:13.108Z,2.00
2022-09-07T08:24:15.976Z,2.53
2022-09-07T08:25:19.607Z,2.60
2022-09-07T08:26:21.481Z,2.30
2022-09-07T08:27:24.320Z,3.47
2022-09-07T08:28:27.813Z,2.65
2022-09-07T08:29:34.458Z,2.95
2022-09-07T08:30:39.444Z,2.47
2022-09-07T08:31:42.396Z,2.60
2022-09-07T08:32:44.296Z,2.00
2022-09-07T08:33:47.151Z,3.03
2022-09-07T08:34:49.083Z,2.22
2022-09-07T08:35:56.394Z,2.15
2022-09-07T08:36:59.435Z,2.35
2022-09-07T08:38:01.271Z,2.33
2022-09-07T08:39:04.667Z,2.92
2022-09-07T08:40:07.433Z,2.60
2022-09-07T08:41:40.586Z,2.40
2022-09-07T08:42:54.672Z,2.75
2022-09-07T08:44:00.735Z,2.30
2022-09-07T08:45:09.982Z,2.03
2022-09-07T08:46:27.902Z,2.40
2022-09-07T08:47:37.481Z,2.70
2022-09-07T08:48:40.306Z,2.65
2022-09-07T08:49:47.749Z,2.67
2022-09-07T08:50:57.300Z,3.05
2022-09-07T08:52:03.522Z,2.20
2022-09-07T08:53:10.548Z,2.10
2022-09-07T08:54:15.224Z,2.75
2022-09-07T08:55:22.648Z,2.38
2022-09-07T08:56:33.654Z,4.68
2022-09-07T08:57:41.503Z,2.60
2022-09-07T08:58:49.849Z,2.25
2022-09-07T09:00:02.018Z,2.90
2022-09-07T09:02:42.481Z,2.47
2022-09-07T09:05:22.349Z,2.00
2022-09-07T09:06:34.505Z,2.13
2022-09-07T09:07:41.026Z,2.50
2022-09-07T09:09:01.614Z,2.10
2022-09-07T09:10:21.267Z,2.13
2022-09-07T09:11:36.213Z,3.08
2022-09-07T09:12:55.072Z,2.30
2022-09-07T09:14:04.988Z,2.20
2022-09-07T09:15:21.096Z,2.42
2022-09-07T09:16:33.662Z,2.22
2022-09-07T09:17:41.657Z,1.70
2022-09-07T09:18:59.412Z,2.10
2022-09-07T09:20:13.597Z,2.00
2022-09-07T09:21:18.760Z,2.50
2022-09-07T09:22:23.180Z,2.08
2022-09-07T09:23:28.116Z,1.90
2022-09-07T09:24:37.577Z,2.75
2022-09-07T09:25:43.822Z,1.80
2022-09-07T09:27:58.477Z,1.95
2022-09-07T09:29:14.115Z,2.10
2022-09-07T09:30:23.178Z,1.80
2022-09-07T09:31:34.088Z,2.65
2022-09-07T09:32:39.853Z,1.92
2022-09-07T09:33:42.666Z,1.95
2022-09-07T09:35:01.973Z,1.70
2022-09-07T09:36:25.148Z,1.52
2022-09-07T09:37:34.711Z,3.10
2022-09-07T09:38:40.713Z,1.92
2022-09-07T09:39:44.529Z,2.45
2022-09-07T09:40:52.856Z,1.80
2022-09-07T09:41:57.544Z,1.83
2022-09-07T09:43:05.976Z,1.60
2022-09-07T09:44:17.427Z,1.75
2022-09-07T09:45:27.253Z,1.50
2022-09-07T09:46:34.088Z,1.35
2022-09-07T09:47:37.087Z,1.70
2022-09-07T09:48:41.531Z,1.42
2022-09-07T09:49:46.297Z,1.75
2022-09-07T09:52:43.613Z,2.30
2022-09-07T09:53:51.653Z,1.90
2022-09-07T09:55:03.424Z,1.80
2022-09-07T09:56:14.893Z,1.23
2022-09-07T09:57:17.926Z,1.75
2022-09-07T10:00:08.412Z,1.63
2022-09-07T10:01:25.390Z,1.50
2022-09-07T10:05:03.763Z,1.50
2022-09-07T10:06:07.702Z,1.58
2022-09-07T10:07:20.619Z,1.95
2022-09-07T10:08:26.303Z,1.65
2022-09-07T10:09:37.932Z,2.20
2022-09-07T10:10:51.623Z,1.88
2022-09-07T10:12:07.552Z,1.75
2022-09-07T10:13:22.356Z,2.85
2022-09-07T10:14:28.844Z,1.70
2022-09-07T10:15:41.065Z,1.65
2022-09-07T10:16:44.254Z,2.03
2022-09-07T10:17:50.522Z,1.88
2022-09-07T10:18:57.389Z,1.77
2022-09-07T10:20:01.628Z,2.30
2022-09-07T10:21:25.100Z,1.80
2022-09-07T10:22:32.841Z,1.40
2022-09-07T10:23:35.765Z,1.70
2022-09-07T10:24:39.759Z,1.88
2022-09-07T10:25:44.357Z,1.52
2022-09-07T10:26:48.626Z,1.50
2022-09-07T10:28:02.891Z,1.60
2022-09-07T10:29:13.199Z,1.83
2022-09-07T10:30:17.797Z,2.05
2022-09-07T10:31:26.247Z,2.10
2022-09-07T10:32:44.367Z,1.60
2022-09-07T10:35:26.234Z,1.80
2022-09-07T10:36:38.897Z,1.75
2022-09-07T10:37:52.224Z,1.70
2022-09-07T10:39:01.185Z,1.95
2022-09-07T10:40:16.893Z,1.70
2022-09-07T10:41:24.122Z,2.05
2022-09-07T10:42:29.561Z,1.88
2022-09-07T10:43:43.459Z,1.90
2022-09-07T10:44:58.467Z,1.83
2022-09-07T10:46:55.877Z,2.00
2022-09-07T10:47:50.516Z,2.00
2022-09-07T10:49:11.149Z,1.70
2022-09-07T10:50:24.878Z,2.05
2022-09-07T10:51:34.010Z,2.40
2022-09-07T10:52:45.870Z,1.75
2022-09-07T10:55:26.411Z,2.03
2022-09-07T10:56:34.336Z,1.77
2022-09-07T10:57:48.919Z,2.13
2022-09-07T10:59:04.377Z,2.00
2022-09-07T11:00:11.680Z,1.70
2022-09-07T11:01:25.518Z,2.42
2022-09-07T11:02:36.246Z,2.13
2022-09-07T11:03:54.327Z,1.70
2022-09-07T11:05:08.359Z,2.28
2022-09-07T11:06:18.778Z,2.45
2022-09-07T11:07:33.157Z,2.15
2022-09-07T11:10:24.446Z,2.15
2022-09-07T11:12:59.215Z,1.80
2022-09-07T11:14:13.007Z,1.70
2022-09-07T11:15:23.500Z,2.25
2022-09-07T11:17:55.550Z,2.55
2022-09-07T11:20:31.313Z,1.70
2022-09-07T11:23:13.512Z,1.70
2022-09-07T11:24:26.907Z,2.10
2022-09-07T11:25:35.433Z,2.00
2022-09-07T11:26:41.478Z,2.10
2022-09-07T11:27:48.581Z,2.00
2022-09-07T11:30:21.685Z,2.38
2022-09-07T11:31:28.557Z,2.20
2022-09-07T11:32:36.107Z,2.33
2022-09-07T11:34:23.723Z,2.00
2022-09-07T11:35:20.159Z,2.85
2022-09-07T11:36:27.510Z,2.00
2022-09-07T11:37:35.790Z,2.10
2022-09-07T11:38:44.283Z,2.50
2022-09-07T11:39:51.523Z,3.08
2022-09-07T11:41:03.201Z,2.50
2022-09-07T11:43:41.635Z,2.15
2022-09-07T11:44:57.015Z,2.00
2022-09-07T11:46:04.937Z,2.10
2022-09-07T11:47:15.207Z,2.40
2022-09-07T11:48:22.874Z,2.05
2022-09-07T11:49:27.061Z,2.03
2022-09-07T11:50:32.890Z,2.40
2022-09-07T11:51:53.632Z,2.25
2022-09-07T11:53:00.639Z,1.90
2022-09-07T11:54:28.302Z,2.00
2022-09-07T11:55:33.750Z,1.75
2022-09-07T11:56:45.809Z,1.95
2022-09-07T11:58:04.325Z,2.35
2022-09-07T11:59:24.141Z,2.20
2022-09-07T12:00:34.464Z,2.10
2022-09-07T12:01:48.011Z,2.30
2022-09-07T12:03:05.419Z,2.40
2022-09-07T12:04:26.164Z,1.65
2022-09-07T12:05:56.106Z,2.60
2022-09-07T12:07:26.623Z,2.05
2022-09-07T12:08:48.292Z,2.55
2022-09-07T12:10:07.504Z,2.30
2022-09-07T12:11:23.482Z,1.90
2022-09-07T12:12:40.970Z,1.70
2022-09-07T12:14:18.793Z,1.80
2022-09-07T12:15:30.293Z,2.67
2022-09-07T12:16:49.617Z,2.00
2022-09-07T12:18:07.600Z,2.05
2022-09-07T12:19:20.595Z,1.88
2022-09-07T12:20:28.957Z,2.10
2022-09-07T12:21:37.469Z,1.90
2022-09-07T12:22:58.896Z,2.63
2022-09-07T12:24:04.225Z,2.42
2022-09-07T12:25:09.488Z,1.92
2022-09-07T12:26:49.642Z,2.10
2022-09-07T12:27:53.210Z,2.47
2022-09-07T12:29:19.422Z,1.85
2022-09-07T12:31:01.920Z,1.88
2022-09-07T12:32:53.086Z,2.25
2022-09-07T12:33:30.529Z,2.17
2022-09-07T12:35:00.439Z,2.17
2022-09-07T12:36:24.243Z,2.15
2022-09-07T12:37:41.883Z,2.10
2022-09-07T12:39:07.127Z,1.80
2022-09-07T12:40:45.292Z,2.00
2022-09-07T12:43:45.241Z,1.80
2022-09-07T12:44:48.287Z,2.10
2022-09-07T12:45:52.110Z,2.28
2022-09-07T12:46:57.653Z,2.00
2022-09-07T12:48:04.987Z,2.00
2022-09-07T12:49:18.572Z,2.30
2022-09-07T12:50:29.508Z,2.22
2022-09-07T12:53:29.740Z,2.15
2022-09-07T12:54:37.847Z,1.92
2022-09-07T12:56:18.089Z,3.38
2022-09-07T12:57:31.403Z,2.20
2022-09-07T12:58:44.321Z,2.15
2022-09-07T13:00:00.689Z,2.20
2022-09-07T13:01:22.563Z,1.88
2022-09-07T13:02:50.534Z,2.40
2022-09-07T13:04:13.794Z,2.33
2022-09-07T13:05:25.294Z,2.10
2022-09-07T13:08:20.593Z,2.50
2022-09-07T13:09:31.520Z,2.53
2022-09-07T13:10:36.967Z,2.72
2022-09-07T13:11:40.411Z,2.58
2022-09-07T13:12:57.440Z,2.28
2022-09-07T13:14:05.173Z,2.42
2022-09-07T13:15:34.534Z,2.15
2022-09-07T13:18:03.569Z,2.25
2022-09-07T13:19:08.650Z,2.40
2022-09-07T13:20:30.227Z,1.80
2022-09-07T13:21:38.490Z,2.05
2022-09-07T13:22:57.203Z,2.20
2022-09-07T13:24:46.805Z,2.20
2022-09-07T13:37:01.528Z,2.15
2022-09-07T13:38:04.743Z,2.40
2022-09-07T13:39:13.024Z,1.70
2022-09-07T13:40:19.381Z,2.00
2022-09-07T13:41:26.033Z,2.03
2022-09-07T13:42:31.197Z,1.90
2022-09-07T13:43:34.989Z,2.10
2022-09-07T13:44:37.916Z,2.70
2022-09-07T13:45:58.058Z,2.90
2022-09-07T13:47:12.778Z,2.25
2022-09-07T13:48:23.425Z,1.95
2022-09-07T13:50:02.831Z,2.38
2022-09-07T13:51:08.286Z,1.98
2022-09-07T13:52:17.726Z,2.42
2022-09-07T13:53:50.389Z,2.67
2022-09-07T13:55:04.545Z,2.13
2022-09-07T13:56:23.329Z,2.47
2022-09-07T13:57:28.641Z,2.38
2022-09-07T13:58:36.036Z,2.45
2022-09-07T13:59:41.807Z,2.30
2022-09-07T14:00:53.124Z,2.15
2022-09-07T14:01:57.126Z,2.20
2022-09-07T14:03:04.867Z,1.95
2022-09-07T14:04:09.478Z,2.83
2022-09-07T14:05:17.962Z,3.15
2022-09-07T14:06:35.631Z,2.70
2022-09-07T14:07:45.486Z,2.50
2022-09-07T14:08:49.665Z,2.10
2022-09-07T14:10:06.687Z,1.90
2022-09-07T14:11:18.045Z,2.10
2022-09-07T14:12:22.848Z,2.60
2022-09-07T14:13:24.652Z,3.78
2022-09-07T14:14:29.469Z,5.22
2022-09-07T14:15:36.056Z,4.03
2022-09-07T14:16:39.508Z,2.38
2022-09-07T14:17:42.406Z,3.30
2022-09-07T14:18:44.676Z,2.50
2022-09-07T14:19:50.385Z,2.60
2022-09-07T14:20:53.699Z,2.42
2022-09-07T14:21:58.395Z,2.20
2022-09-07T14:23:01.630Z,2.22
2022-09-07T14:24:06.540Z,2.15
2022-09-07T14:25:16.963Z,2.20
2022-09-07T14:26:22.011Z,1.60
2022-09-07T14:27:34.404Z,1.92
2022-09-07T14:28:38.325Z,2.05
2022-09-07T14:29:41.168Z,2.00
2022-09-07T14:30:43.215Z,2.42
2022-09-07T14:31:46.528Z,1.92
2022-09-07T14:32:50.167Z,2.25
2022-09-07T14:33:54.846Z,2.28
2022-09-07T14:34:58.007Z,2.15
2022-09-07T14:36:00.482Z,2.10
2022-09-07T14:37:07.053Z,2.20
2022-09-07T14:39:03.987Z,1.77
2022-09-07T14:39:44.713Z,1.63
2022-09-07T14:40:46.597Z,2.13
2022-09-07T14:41:50.022Z,2.30
2022-09-07T14:42:55.276Z,2.00
2022-09-07T14:44:00.009Z,2.53
2022-09-07T14:45:20.570Z,2.75
2022-09-07T14:46:25.571Z,2.10
2022-09-07T14:47:30.552Z,2.00
2022-09-07T14:48:34.483Z,2.20
2022-09-07T14:49:38.728Z,2.55
2022-09-07T14:50:46.901Z,2.17
2022-09-07T14:51:50.818Z,2.40
2022-09-07T14:54:22.622Z,2.08
2022-09-07T14:55:29.929Z,2.33
2022-09-07T14:56:35.323Z,2.00
2022-09-07T14:57:37.142Z,2.05
2022-09-07T14:58:39.952Z,2.35
2022-09-07T14:59:43.293Z,2.00
2022-09-07T15:01:37.145Z,2.13
2022-09-07T15:02:37.195Z,2.38
2022-09-07T15:03:53.987Z,2.33
2022-09-07T15:05:19.008Z,1.92
2022-09-07T15:07:58.578Z,1.90
2022-09-07T15:09:00.501Z,2.00
2022-09-07T15:10:15.953Z,2.20
2022-09-07T15:11:38.469Z,1.98
2022-09-07T15:12:42.127Z,2.70
2022-09-07T15:13:46.531Z,2.40
2022-09-07T15:14:48.589Z,2.05
2022-09-07T15:16:00.011Z,2.50
2022-09-07T15:18:54.526Z,2.75
2022-09-07T15:19:57.501Z,2.75
2022-09-07T15:20:59.371Z,2.10
2022-09-07T15:22:13.654Z,3.33
2022-09-07T15:23:16.704Z,2.55
2022-09-07T15:24:19.508Z,2.50
2022-09-07T15:25:23.029Z,1.75
2022-09-07T15:27:54.532Z,2.30
2022-09-07T15:29:12.926Z,2.30
2022-09-07T15:30:17.288Z,2.22
2022-09-07T15:32:43.086Z,2.08
2022-09-07T15:33:45.848Z,2.22
2022-09-07T15:34:48.639Z,2.35
2022-09-07T15:35:51.438Z,2.03
2022-09-07T15:36:56.137Z,2.10
2022-09-07T15:38:02.738Z,2.20
2022-09-07T15:39:06.810Z,2.53
2022-09-07T15:40:16.628Z,2.20
2022-09-07T15:41:23.968Z,2.20
2022-09-07T15:43:49.400Z,2.33
2022-09-07T15:44:51.293Z,2.25
2022-09-07T15:45:54.151Z,2.05
2022-09-07T15:48:23.283Z,1.77
2022-09-07T15:49:28.175Z,2.10
2022-09-07T15:50:30.156Z,2.03
2022-09-07T15:52:54.646Z,1.90
2022-09-07T15:54:14.012Z,2.55
2022-09-07T15:55:17.521Z,2.15
2022-09-07T15:56:22.314Z,1.85
2022-09-07T15:58:47.063Z,1.80
2022-09-07T15:59:48.994Z,2.25
2022-09-07T16:01:51.471Z,2.30
2022-09-07T16:03:37.570Z,3.13
2022-09-07T16:04:39.543Z,2.13
2022-09-07T16:05:44.115Z,3.05
2022-09-07T16:06:48.301Z,2.17
2022-09-07T16:09:14.650Z,2.90
2022-09-07T16:10:16.664Z,3.15
2022-09-07T16:11:23.850Z,2.22
2022-09-07T16:13:48.930Z,1.95
2022-09-07T16:14:56.296Z,2.20
2022-09-07T16:16:00.541Z,2.42
2022-09-07T16:18:25.202Z,2.25
2022-09-07T16:19:27.020Z,2.25
2022-09-07T16:20:32.951Z,2.00
2022-09-07T16:21:35.873Z,2.45
2022-09-07T16:24:01.125Z,2.00